createdAt,value
2017-11-03T00:20:54.019Z,31.80
2017-11-03T00:23:22.259Z,32.30
2017-11-03T00:25:51.278Z,31.17
2017-11-03T00:28:19.517Z,30.63
2017-11-03T00:30:47.782Z,31.83
2017-11-03T00:33:16.785Z,32.70
2017-11-03T00:35:45.038Z,30.60
2017-11-03T00:38:13.373Z,31.50
2017-11-03T00:40:41.616Z,32.60
2017-11-03T00:43:09.862Z,30.60
2017-11-03T00:45:38.111Z,31.47
2017-11-03T00:48:06.354Z,33.27
2017-11-03T00:50:35.363Z,31.60
2017-11-03T00:53:03.610Z,33.10
2017-11-03T00:55:31.858Z,32.20
2017-11-03T00:58:00.109Z,32.63
2017-11-03T01:00:28.355Z,32.67
2017-11-03T01:02:57.362Z,33.80
2017-11-03T01:05:25.613Z,36.10
2017-11-03T01:07:53.850Z,35.30
2017-11-03T01:10:22.093Z,33.03
2017-11-03T01:12:50.342Z,34.60
2017-11-03T01:15:19.347Z,34.00
2017-11-03T01:17:47.593Z,31.37
2017-11-03T01:20:15.837Z,33.40
2017-11-03T01:22:44.085Z,33.80
2017-11-03T01:25:12.326Z,36.27
2017-11-03T01:27:41.332Z,34.53
2017-11-03T01:30:10.339Z,35.23
2017-11-03T01:32:38.594Z,33.73
2017-11-03T01:35:07.606Z,35.27
2017-11-03T01:37:35.854Z,39.07
2017-11-03T01:40:04.107Z,38.37
2017-11-03T01:42:32.350Z,37.87
2017-11-03T01:45:00.594Z,41.43
2017-11-03T01:47:29.611Z,41.33
2017-11-03T01:49:57.850Z,38.90
2017-11-03T01:52:26.874Z,41.77
2017-11-03T01:54:55.112Z,37.27
2017-11-03T01:57:24.128Z,40.33
2017-11-03T01:59:53.135Z,40.00
2017-11-03T02:02:21.389Z,40.63
2017-11-03T02:04:50.389Z,41.40
2017-11-03T02:07:18.638Z,42.37
2017-11-03T02:09:46.883Z,39.70
2017-11-03T02:12:15.141Z,40.77
2017-11-03T02:14:43.382Z,39.13
2017-11-03T02:17:12.408Z,38.40
2017-11-03T02:19:40.638Z,35.80
2017-11-03T02:22:09.654Z,36.70
2017-11-03T02:24:37.909Z,38.30
2017-11-03T02:27:06.141Z,36.17
2017-11-03T02:29:34.378Z,34.90
2017-11-03T02:32:02.626Z,39.23
2017-11-03T02:34:30.872Z,38.87
2017-11-03T02:36:59.120Z,39.43
2017-11-03T02:39:27.357Z,38.30
2017-11-03T02:41:56.376Z,35.50
2017-11-03T02:44:24.609Z,33.07
2017-11-03T02:46:52.861Z,33.97
2017-11-03T02:49:21.106Z,30.70
2017-11-03T02:51:49.363Z,32.30
2017-11-03T02:54:18.364Z,27.20
2017-11-03T02:56:47.374Z,28.87
2017-11-03T02:59:15.613Z,29.70
2017-11-03T03:01:44.635Z,33.97
2017-11-03T03:04:12.886Z,36.00
2017-11-03T03:06:41.894Z,35.73
2017-11-03T03:09:10.133Z,38.93
2017-11-03T03:11:38.382Z,36.40
2017-11-03T03:14:06.627Z,37.97
2017-11-03T03:16:34.862Z,36.17
2017-11-03T03:19:03.112Z,40.50
2017-11-03T03:21:31.362Z,38.80
2017-11-03T03:23:59.601Z,37.37
2017-11-03T03:26:28.619Z,37.40
2017-11-03T03:28:56.853Z,39.00
2017-11-03T03:31:25.108Z,41.30
2017-11-03T03:33:53.350Z,40.77
2017-11-03T03:36:21.591Z,36.27
2017-11-03T03:38:49.830Z,35.73
2017-11-03T03:41:18.075Z,36.90
2017-11-03T03:43:46.322Z,35.40
2017-11-03T03:46:14.555Z,39.30
2017-11-03T03:48:42.801Z,40.50
2017-11-03T03:51:11.060Z,38.03
2017-11-03T03:53:40.067Z,37.50
2017-11-03T03:56:08.306Z,39.47
2017-11-03T03:58:36.549Z,40.73
2017-11-03T04:01:04.795Z,40.00
2017-11-03T04:03:33.039Z,36.13
2017-11-03T04:06:02.051Z,38.37
2017-11-03T04:08:30.303Z,37.53
2017-11-03T04:10:58.538Z,38.50
2017-11-03T04:13:26.791Z,39.13
2017-11-03T04:15:55.039Z,38.23
2017-11-03T04:18:24.058Z,44.17
2017-11-03T04:20:52.328Z,39.20
2017-11-03T04:23:20.573Z,36.97
2017-11-03T04:25:49.586Z,41.40
2017-11-03T04:28:17.835Z,35.97
2017-11-03T04:30:46.078Z,34.70
2017-11-03T04:33:14.330Z,37.37
2017-11-03T04:35:42.574Z,36.10
2017-11-03T04:38:11.601Z,37.00
2017-11-03T04:40:39.834Z,37.50
2017-11-03T04:43:08.851Z,39.10
2017-11-03T04:45:37.087Z,43.50
2017-11-03T04:48:05.334Z,42.20
2017-11-03T04:50:33.578Z,40.67
2017-11-03T04:53:01.833Z,40.03
2017-11-03T04:55:30.838Z,44.20
2017-11-03T04:57:59.866Z,49.87
2017-11-03T05:00:28.098Z,45.30
2017-11-03T05:02:57.118Z,48.27
2017-11-03T05:05:25.367Z,50.40
2017-11-03T05:07:54.375Z,49.83
2017-11-03T05:10:22.623Z,57.03
2017-11-03T05:12:50.868Z,47.70
2017-11-03T05:15:19.108Z,50.87
2017-11-03T05:17:47.368Z,54.97
2017-11-03T05:20:16.372Z,55.03
2017-11-03T05:22:44.621Z,55.10
2017-11-03T05:25:13.634Z,56.30
2017-11-03T05:27:41.885Z,62.73
2017-11-03T05:30:10.131Z,61.50
2017-11-03T05:32:38.386Z,65.27
2017-11-03T05:35:06.634Z,70.97
2017-11-03T05:37:34.883Z,63.60
2017-11-03T05:40:03.133Z,58.10
2017-11-03T05:42:31.391Z,67.90
2017-11-03T05:44:59.628Z,59.33
2017-11-03T05:47:28.646Z,61.40
2017-11-03T05:49:56.887Z,63.30
2017-11-03T05:52:25.898Z,61.97
2017-11-03T05:54:54.142Z,65.80
2017-11-03T05:57:22.390Z,56.47
2017-11-03T05:59:50.636Z,53.63
2017-11-03T06:02:18.886Z,56.40
2017-11-03T06:04:47.893Z,58.10
2017-11-03T06:07:16.155Z,54.00
2017-11-03T06:09:45.683Z,57.30
2017-11-03T06:12:13.935Z,55.97
2017-11-03T06:14:42.960Z,52.27
2017-11-03T06:17:11.203Z,53.97
2017-11-03T06:19:40.221Z,52.57
2017-11-03T06:22:08.466Z,53.77
2017-11-03T06:24:37.482Z,51.37
2017-11-03T06:27:05.726Z,55.80
2017-11-03T06:29:33.977Z,52.30
2017-11-03T06:32:02.225Z,51.47
2017-11-03T06:34:30.477Z,51.57
2017-11-03T06:36:58.722Z,50.70
2017-11-03T06:39:27.007Z,50.97
2017-11-03T06:41:56.016Z,47.30
2017-11-03T06:44:25.034Z,46.83
2017-11-03T06:46:53.269Z,47.73
2017-11-03T06:49:22.395Z,48.23
2017-11-03T06:51:50.642Z,48.57
2017-11-03T06:54:18.886Z,45.97
2017-11-03T06:56:47.126Z,44.17
2017-11-03T06:59:15.378Z,46.50
2017-11-03T07:01:44.383Z,44.73
2017-11-03T07:04:12.634Z,42.37
2017-11-03T07:06:41.644Z,45.20
2017-11-03T07:09:10.665Z,43.00
2017-11-03T07:11:38.903Z,45.40
2017-11-03T07:14:07.919Z,45.47
2017-11-03T07:16:36.166Z,43.50
2017-11-03T07:19:05.187Z,43.77
2017-11-03T07:21:33.430Z,41.17
2017-11-03T07:24:01.685Z,44.03
2017-11-03T07:26:29.939Z,37.97
2017-11-03T07:28:58.182Z,41.77
2017-11-03T07:31:26.427Z,44.63
2017-11-03T07:33:54.685Z,42.93
2017-11-03T07:36:22.927Z,41.63
2017-11-03T07:38:51.175Z,41.40
2017-11-03T07:41:20.185Z,41.27
2017-11-03T07:43:48.432Z,43.33
2017-11-03T07:46:17.443Z,39.73
2017-11-03T07:48:45.718Z,38.50
2017-11-03T07:51:13.968Z,34.90
2017-11-03T07:53:42.218Z,33.20
2017-11-03T07:56:10.466Z,33.97
2017-11-03T07:58:38.705Z,35.17
2017-11-03T08:01:07.714Z,37.23
2017-11-03T08:03:35.970Z,36.70
2017-11-03T08:06:04.980Z,38.33
2017-11-03T08:08:33.989Z,44.73
2017-11-03T08:11:02.229Z,43.90
2017-11-03T08:13:31.246Z,44.80
2017-11-03T08:15:59.485Z,44.20
2017-11-03T08:18:27.737Z,49.00
2017-11-03T08:20:55.983Z,49.33
2017-11-03T08:23:24.226Z,51.63
2017-11-03T08:25:53.234Z,54.03
2017-11-03T08:28:21.482Z,49.17
2017-11-03T08:30:49.721Z,47.13
2017-11-03T08:33:17.971Z,46.67
2017-11-03T08:35:46.203Z,40.90
2017-11-03T08:38:14.456Z,40.93
2017-11-03T08:40:42.699Z,41.03
2017-11-03T08:43:10.938Z,38.50
2017-11-03T08:45:39.950Z,36.53
2017-11-03T08:48:08.964Z,34.77
2017-11-03T08:50:37.202Z,36.20
2017-11-03T08:53:06.230Z,37.70
2017-11-03T08:55:34.467Z,38.30
2017-11-03T08:58:02.721Z,37.60
2017-11-03T09:00:30.958Z,33.80
2017-11-03T09:02:59.204Z,32.67
2017-11-03T09:05:28.203Z,33.63
2017-11-03T09:07:57.223Z,29.67
2017-11-03T09:10:25.453Z,31.63
2017-11-03T09:12:54.469Z,28.73
2017-11-03T09:15:22.716Z,27.27
2017-11-03T09:17:50.957Z,26.17
2017-11-03T09:20:19.211Z,29.87
2017-11-03T09:22:47.463Z,28.03
2017-11-03T09:25:16.478Z,27.80
2017-11-03T09:27:44.728Z,28.40
2017-11-03T09:30:13.738Z,28.90
2017-11-03T09:32:41.990Z,28.50
2017-11-03T09:35:11.006Z,29.23
2017-11-03T09:37:39.266Z,28.20
2017-11-03T09:40:08.278Z,29.93
2017-11-03T09:42:36.525Z,26.93
2017-11-03T09:45:05.540Z,28.90
2017-11-03T09:47:33.790Z,26.97
2017-11-03T09:50:02.854Z,27.93
2017-11-03T09:52:31.106Z,26.97
2017-11-03T09:54:59.353Z,27.33
2017-11-03T09:57:27.606Z,32.30
2017-11-03T09:59:55.854Z,30.00
2017-11-03T10:02:24.102Z,31.83
2017-11-03T10:04:52.353Z,29.53
2017-11-03T10:07:21.366Z,31.90
2017-11-03T10:09:49.617Z,29.90
2017-11-03T10:12:18.622Z,29.40
2017-11-03T10:14:46.869Z,29.77
2017-11-03T10:17:15.109Z,33.27
2017-11-03T10:19:44.269Z,36.23
2017-11-03T10:22:13.269Z,33.80
2017-11-03T10:24:41.519Z,35.50
2017-11-03T10:27:10.523Z,33.27
2017-11-03T10:29:39.530Z,31.00
2017-11-03T10:32:07.773Z,30.40
2017-11-03T10:34:36.791Z,31.77
2017-11-03T10:37:05.038Z,34.20
2017-11-03T10:39:33.282Z,35.20
2017-11-03T10:42:01.524Z,31.57
2017-11-03T10:44:29.778Z,38.50
2017-11-03T10:46:58.787Z,38.37
2017-11-03T10:49:27.034Z,35.13
2017-11-03T10:51:56.039Z,38.67
2017-11-03T10:54:25.051Z,40.60
2017-11-03T10:56:53.291Z,42.03
2017-11-03T10:59:21.543Z,38.87
2017-11-03T11:01:49.783Z,37.20
2017-11-03T11:04:18.033Z,38.47
2017-11-03T11:06:47.038Z,43.80
2017-11-03T11:09:15.286Z,42.63
2017-11-03T11:11:43.526Z,34.00
2017-11-03T11:14:11.769Z,33.63
2017-11-03T11:16:40.018Z,36.20
2017-11-03T11:19:09.032Z,40.07
2017-11-03T11:21:37.273Z,38.80
2017-11-03T11:24:05.522Z,39.50
2017-11-03T11:26:33.775Z,45.40
2017-11-03T11:29:02.015Z,42.70
2017-11-03T11:31:31.034Z,44.33
2017-11-03T11:33:59.280Z,39.43
2017-11-03T11:36:28.290Z,38.23
2017-11-03T11:38:56.541Z,35.90
2017-11-03T11:41:25.549Z,36.03
2017-11-03T11:43:54.567Z,34.63
2017-11-03T11:46:22.811Z,36.73
2017-11-03T11:48:51.823Z,39.17
2017-11-03T11:51:20.069Z,35.10
2017-11-03T11:53:48.310Z,36.03
2017-11-03T11:56:16.553Z,35.47
2017-11-03T11:58:44.805Z,36.57
2017-11-03T12:01:13.823Z,33.87
2017-11-03T12:03:42.075Z,33.67
2017-11-03T12:06:11.082Z,33.27
2017-11-03T12:08:39.356Z,32.20
2017-11-03T12:11:08.372Z,33.70
2017-11-03T12:13:36.618Z,31.53
2017-11-03T12:16:05.633Z,33.50
2017-11-03T12:18:33.886Z,32.37
2017-11-03T12:21:02.900Z,31.03
2017-11-03T12:23:31.149Z,31.60
2017-11-03T12:26:00.176Z,32.83
2017-11-03T12:28:28.419Z,33.60
2017-11-03T12:30:57.448Z,31.10
2017-11-03T12:33:25.691Z,30.87
2017-11-03T12:35:54.706Z,32.97
2017-11-03T12:38:22.950Z,33.27
2017-11-03T12:40:55.746Z,33.27
2017-11-03T12:43:24.001Z,33.27
2017-11-03T12:45:52.263Z,35.63
2017-11-03T12:48:20.507Z,32.37
2017-11-03T12:50:48.757Z,31.37
2017-11-03T12:53:17.002Z,30.20
2017-11-03T12:55:45.254Z,29.97
2017-11-03T12:58:13.509Z,31.90
2017-11-03T13:00:41.768Z,31.07
2017-11-03T13:03:10.014Z,28.67
2017-11-03T13:05:39.034Z,29.77
2017-11-03T13:08:07.288Z,29.90
2017-11-03T13:10:35.545Z,29.53
2017-11-03T13:13:03.794Z,32.80
2017-11-03T13:15:32.055Z,31.37
2017-11-03T13:18:00.306Z,31.33
2017-11-03T13:20:28.558Z,31.07
2017-11-03T13:22:57.570Z,31.00
2017-11-03T13:25:25.826Z,31.10
2017-11-03T13:27:54.075Z,32.47
2017-11-03T13:30:22.327Z,31.30
2017-11-03T13:32:50.581Z,31.27
2017-11-03T13:35:18.834Z,33.73
2017-11-03T13:37:47.849Z,36.73
2017-11-03T13:40:16.112Z,35.30
2017-11-03T13:42:44.369Z,34.77
2017-11-03T13:45:13.390Z,34.27
2017-11-03T13:47:41.645Z,34.53
2017-11-03T13:50:10.665Z,34.27
2017-11-03T13:52:39.031Z,30.87
2017-11-03T13:55:07.288Z,33.63
2017-11-03T13:57:36.296Z,34.90
2017-11-03T14:00:04.557Z,36.43
2017-11-03T14:02:33.575Z,33.97
2017-11-03T14:05:01.833Z,33.23
2017-11-03T14:07:30.861Z,34.93
2017-11-03T14:09:59.120Z,33.90
2017-11-03T14:12:27.377Z,35.90
2017-11-03T14:14:56.402Z,36.03
2017-11-03T14:17:24.653Z,37.17
2017-11-03T14:19:52.912Z,37.40
2017-11-03T14:22:21.925Z,35.80
2017-11-03T14:24:50.191Z,37.80
2017-11-03T14:27:19.208Z,37.57
2017-11-03T14:29:47.465Z,37.10
2017-11-03T14:32:15.715Z,39.77
2017-11-03T14:34:43.973Z,38.97
2017-11-03T14:37:12.223Z,37.67
2017-11-03T14:39:40.475Z,37.40
2017-11-03T14:42:08.738Z,38.77
2017-11-03T14:44:36.996Z,40.20
2017-11-03T14:47:06.027Z,37.80
2017-11-03T14:49:34.276Z,40.40
2017-11-03T14:52:03.298Z,36.90
2017-11-03T14:54:31.604Z,38.53
2017-11-03T14:57:04.028Z,37.33
2017-11-03T15:02:11.461Z,37.03
2017-11-03T15:04:39.977Z,37.53
2017-11-03T15:07:08.232Z,37.00
2017-11-03T15:09:36.494Z,37.40
2017-11-03T15:12:08.374Z,36.73
2017-11-03T15:14:36.714Z,39.87
2017-11-03T15:17:05.058Z,37.83
2017-11-03T15:19:33.455Z,36.00
2017-11-03T15:22:02.590Z,37.27
2017-11-03T15:24:30.944Z,37.77
2017-11-03T15:26:59.320Z,39.00
2017-11-03T15:29:27.682Z,38.90
2017-11-03T15:31:56.759Z,37.70
2017-11-03T15:34:25.015Z,38.00
2017-11-03T15:36:53.303Z,40.70
2017-11-03T15:39:21.570Z,38.33
2017-11-03T15:41:50.602Z,41.20
2017-11-03T15:44:20.102Z,41.27
2017-11-03T15:46:49.127Z,42.37
2017-11-03T15:49:17.381Z,42.73
2017-11-03T15:51:45.643Z,41.57
2017-11-03T15:54:14.659Z,42.20
2017-11-03T15:56:42.909Z,42.50
2017-11-03T15:59:11.920Z,43.50
2017-11-03T16:01:40.166Z,45.30
2017-11-03T16:04:08.414Z,45.23
2017-11-03T16:06:36.665Z,46.57
2017-11-03T16:09:04.933Z,51.00
2017-11-03T16:11:33.204Z,48.47
2017-11-03T16:14:01.467Z,46.70
2017-11-03T16:16:30.498Z,45.80
2017-11-03T16:18:58.787Z,46.93
2017-11-03T16:21:27.044Z,48.03
2017-11-03T16:23:55.294Z,49.80
2017-11-03T16:26:23.563Z,48.93
2017-11-03T16:28:52.583Z,54.40
2017-11-03T16:31:20.847Z,53.20
2017-11-03T16:33:49.132Z,48.33
2017-11-03T16:36:17.385Z,53.27
2017-11-03T16:38:45.645Z,55.60
2017-11-03T16:41:13.892Z,56.10
2017-11-03T16:43:42.151Z,59.53
2017-11-03T16:46:10.408Z,53.20
2017-11-03T16:48:38.648Z,58.10
2017-11-03T16:51:07.669Z,58.13
2017-11-03T16:53:35.936Z,56.00
2017-11-03T16:56:04.192Z,54.97
2017-11-03T16:58:33.199Z,52.10
2017-11-03T17:01:01.453Z,54.53
2017-11-03T17:03:30.263Z,55.10
2017-11-03T17:05:58.519Z,54.03
2017-11-03T17:08:27.540Z,53.33
2017-11-03T17:11:00.488Z,53.73
2017-11-03T17:13:28.796Z,51.43
2017-11-03T17:15:57.197Z,57.63
2017-11-03T17:18:25.519Z,52.70
2017-11-03T17:20:53.903Z,48.80
2017-11-03T17:25:59.067Z,47.80
2017-11-03T17:28:28.074Z,50.40
2017-11-03T17:30:56.330Z,47.27
2017-11-03T17:33:25.350Z,48.70
2017-11-03T17:35:53.605Z,51.47
2017-11-03T17:38:22.624Z,54.87
2017-11-03T17:41:19.717Z,51.97
2017-11-03T17:43:52.404Z,53.60
2017-11-03T17:46:20.775Z,53.07
2017-11-03T17:48:50.110Z,53.87
2017-11-03T17:51:27.342Z,53.83
2017-11-03T18:05:25.678Z,60.40
2017-11-03T18:07:53.960Z,67.87
2017-11-03T18:10:22.235Z,66.67
2017-11-03T18:12:50.513Z,67.93
2017-11-03T18:15:18.823Z,65.23
2017-11-03T18:17:47.106Z,63.17
2017-11-03T18:20:15.370Z,60.13
2017-11-03T18:22:43.632Z,59.23
2017-11-03T18:25:11.873Z,66.20
2017-11-03T18:27:40.121Z,55.90
2017-11-03T18:30:09.054Z,60.20
2017-11-03T18:32:37.351Z,60.73
2017-11-03T18:35:05.674Z,60.63
2017-11-03T18:37:34.756Z,57.40
2017-11-03T18:40:03.009Z,56.47
2017-11-03T18:42:31.293Z,60.20
2017-11-03T18:44:59.589Z,59.60
2017-11-03T18:47:27.861Z,58.70
2017-11-03T18:49:56.082Z,65.93
2017-11-03T18:52:24.327Z,63.97
2017-11-03T18:54:53.338Z,66.07
2017-11-03T18:57:21.633Z,75.17
2017-11-03T18:59:49.909Z,76.33
2017-11-03T19:02:21.224Z,84.50
2017-11-03T19:04:49.477Z,78.80
2017-11-03T19:07:17.746Z,73.67
2017-11-03T19:09:46.030Z,88.50
2017-11-03T19:12:14.324Z,89.60
2017-11-03T19:14:43.326Z,92.33
2017-11-03T19:17:11.579Z,91.20
2017-11-03T19:19:40.638Z,105.57
2017-11-03T19:22:08.885Z,101.50
2017-11-03T19:24:37.131Z,98.07
2017-11-03T19:27:06.157Z,97.47
2017-11-03T19:29:34.399Z,98.20
2017-11-03T19:32:02.651Z,97.30
2017-11-03T19:34:31.074Z,109.17
2017-11-03T19:37:00.096Z,111.37
2017-11-03T19:39:28.416Z,107.37
2017-11-03T19:41:56.713Z,113.67
2017-11-03T19:44:24.953Z,117.30
2017-11-03T19:46:53.264Z,121.10
2017-11-03T19:49:22.269Z,120.70
2017-11-03T19:51:51.401Z,121.10
2017-11-03T19:54:19.694Z,112.67
2017-11-03T19:56:47.943Z,114.63
2017-11-03T19:59:16.237Z,114.97
2017-11-03T20:01:44.548Z,120.93
2017-11-03T20:04:12.806Z,115.70
2017-11-03T20:06:41.112Z,118.87
2017-11-03T20:09:09.357Z,115.80
2017-11-03T20:11:37.618Z,111.17
2017-11-03T20:14:05.950Z,120.03
2017-11-03T20:16:34.197Z,112.00
2017-11-03T20:19:02.504Z,130.17
2017-11-03T20:21:30.798Z,120.13
2017-11-03T20:23:59.045Z,122.13
2017-11-03T20:26:27.292Z,115.63
2017-11-03T20:28:55.554Z,114.33
2017-11-03T20:31:23.814Z,113.00
2017-11-03T20:33:52.124Z,117.70
2017-11-03T20:36:20.366Z,114.37
2017-11-03T20:38:48.677Z,123.70
2017-11-03T20:41:16.973Z,119.07
2017-11-03T20:43:45.219Z,119.73
2017-11-03T20:46:13.526Z,125.37
2017-11-03T20:48:41.835Z,114.20
2017-11-03T20:51:10.893Z,128.20
2017-11-03T20:53:39.919Z,126.73
2017-11-03T20:56:08.975Z,118.27
2017-11-03T20:58:37.214Z,124.00
2017-11-03T21:01:05.462Z,119.17
2017-11-03T21:03:33.740Z,112.73
2017-11-03T21:06:02.750Z,133.40
2017-11-03T21:08:30.999Z,133.93
2017-11-03T21:11:00.091Z,137.43
2017-11-03T21:13:28.339Z,133.40
2017-11-03T21:15:56.596Z,132.70
2017-11-03T21:18:24.989Z,130.37
2017-11-03T21:20:53.345Z,133.37
2017-11-03T21:23:21.601Z,123.53
2017-11-03T21:25:49.842Z,134.03
2017-11-03T21:28:18.971Z,136.97
2017-11-03T21:30:47.230Z,135.40
2017-11-03T21:33:15.484Z,130.37
2017-11-03T21:35:44.500Z,128.63
2017-11-03T21:38:13.523Z,132.87
2017-11-03T21:40:41.796Z,122.97
2017-11-03T21:43:10.122Z,127.47
2017-11-03T21:45:38.362Z,131.50
2017-11-03T21:48:06.626Z,126.07
2017-11-03T21:50:34.886Z,143.33
2017-11-03T21:53:03.195Z,135.70
2017-11-03T21:55:31.427Z,132.30
2017-11-03T21:57:59.747Z,127.23
2017-11-03T22:00:28.048Z,140.37
2017-11-03T22:02:56.406Z,133.47
2017-11-03T22:05:24.649Z,120.50
2017-11-03T22:07:52.953Z,103.53
2017-11-03T22:10:21.265Z,111.50
2017-11-03T22:12:49.548Z,116.13
2017-11-03T22:15:18.550Z,98.27
2017-11-03T22:17:46.801Z,113.13
2017-11-03T22:20:15.048Z,106.20
2017-11-03T22:22:43.309Z,112.43
2017-11-03T22:25:11.628Z,109.90
2017-11-03T22:27:40.662Z,115.73
2017-11-03T22:30:08.952Z,111.40
2017-11-03T22:32:37.197Z,100.87
2017-11-03T22:35:06.211Z,119.90
2017-11-03T22:37:34.564Z,115.27
2017-11-03T22:40:03.569Z,109.30
2017-11-03T22:42:31.896Z,102.87
2017-11-03T22:45:00.998Z,121.60
2017-11-03T22:47:29.294Z,119.17
2017-11-03T22:49:58.353Z,119.53
2017-11-03T22:52:26.776Z,119.47
2017-11-03T22:54:55.830Z,99.50
2017-11-03T22:57:24.105Z,120.93
2017-11-03T22:59:52.363Z,113.87
2017-11-03T23:02:20.666Z,116.27
2017-11-03T23:04:48.908Z,123.33
2017-11-03T23:07:17.201Z,104.20
2017-11-03T23:09:45.799Z,121.70
2017-11-03T23:12:14.086Z,117.50
2017-11-03T23:14:42.333Z,129.97
2017-11-03T23:17:10.715Z,119.20
2017-11-03T23:19:38.982Z,106.00
2017-11-03T23:22:07.231Z,106.93
2017-11-03T23:24:35.489Z,95.90
2017-11-03T23:27:04.495Z,120.50
2017-11-03T23:29:32.755Z,116.90
2017-11-03T23:32:01.801Z,98.27
2017-11-03T23:34:30.182Z,117.13
2017-11-03T23:36:58.435Z,106.83
2017-11-03T23:39:26.702Z,131.13
2017-11-03T23:41:54.950Z,161.80
2017-11-03T23:44:23.979Z,152.80
2017-11-03T23:46:52.274Z,224.77
2017-11-03T23:49:20.602Z,191.60
2017-11-03T23:51:49.618Z,151.63
2017-11-03T23:54:17.878Z,120.20
2017-11-03T23:56:46.138Z,175.73
2017-11-03T23:59:14.386Z,158.63
